createdAt,value
2023-04-02T00:00:00.120Z,8004.00
2023-04-02T00:01:00.144Z,8096.00
2023-04-02T00:02:00.264Z,8099.00
2023-04-02T00:03:00.396Z,8113.00
2023-04-02T00:04:00.271Z,8148.00
2023-04-02T00:05:00.342Z,8143.00
2023-04-02T00:06:00.427Z,8170.00
2023-04-02T00:07:00.470Z,8170.00
2023-04-02T00:08:00.468Z,8086.00
2023-04-02T00:09:00.494Z,8072.00
2023-04-02T00:10:00.518Z,8067.00
2023-04-02T00:11:00.541Z,8091.00
2023-04-02T00:12:00.588Z,8068.00
2023-04-02T00:13:00.583Z,8143.00
2023-04-02T00:14:00.630Z,8218.00
2023-04-02T00:15:00.644Z,8276.00
2023-04-02T00:16:00.697Z,8364.00
2023-04-02T00:17:00.705Z,8429.00
2023-04-02T00:18:00.766Z,8477.00
2023-04-02T00:19:01.536Z,8486.00
2023-04-02T00:20:00.772Z,8482.00
2023-04-02T00:21:00.830Z,8523.00
2023-04-02T00:22:00.890Z,8495.00
2023-04-02T00:23:00.913Z,8496.00
2023-04-02T00:24:00.928Z,8419.00
2023-04-02T00:25:00.981Z,8331.00
2023-04-02T00:26:01.004Z,8262.00
2023-04-02T00:27:01.054Z,8166.00
2023-04-02T00:28:01.122Z,7924.00
2023-04-02T00:29:01.115Z,7849.00
2023-04-02T00:30:01.128Z,7750.00
2023-04-02T00:31:01.149Z,7706.00
2023-04-02T00:32:01.254Z,7670.00
2023-04-02T00:33:01.229Z,7632.00
2023-04-02T00:34:01.237Z,7567.00
2023-04-02T00:35:01.266Z,7567.00
2023-04-02T00:36:01.292Z,7577.00
2023-04-02T00:37:01.289Z,7541.00
2023-04-02T00:38:01.380Z,7518.00
2023-04-02T00:39:01.465Z,7529.00
2023-04-02T00:40:01.489Z,7550.00
2023-04-02T00:41:01.583Z,7614.00
2023-04-02T00:42:01.662Z,7695.00
2023-04-02T00:43:01.765Z,7733.00
2023-04-02T00:44:01.853Z,7715.00
2023-04-02T00:45:01.900Z,7652.00
2023-04-02T00:46:01.970Z,7571.00
2023-04-02T00:47:02.014Z,7530.00
2023-04-02T00:48:02.126Z,7552.00
2023-04-02T00:49:02.274Z,7635.00
2023-04-02T00:50:02.254Z,7680.00
2023-04-02T00:51:02.328Z,7774.00
2023-04-02T00:52:02.389Z,7815.00
2023-04-02T00:53:02.428Z,7915.00
2023-04-02T00:54:02.506Z,7966.00
2023-04-02T00:55:02.529Z,8002.00
2023-04-02T00:56:02.603Z,8054.00
2023-04-02T00:57:02.660Z,8049.00
2023-04-02T00:58:02.713Z,8102.00
2023-04-02T00:59:02.725Z,8126.00
2023-04-02T01:00:02.782Z,8145.00
2023-04-02T01:01:02.916Z,8145.00
2023-04-02T01:02:02.914Z,8105.00
2023-04-02T01:03:03.026Z,8109.00
2023-04-02T01:04:03.217Z,8077.00
2023-04-02T01:05:03.166Z,8084.00
2023-04-02T01:06:03.243Z,8042.00
2023-04-02T01:07:03.302Z,8057.00
2023-04-02T01:08:03.409Z,8069.00
2023-04-02T01:09:03.472Z,8051.00
2023-04-02T01:10:03.544Z,8071.00
2023-04-02T01:11:03.645Z,8042.00
2023-04-02T01:12:03.720Z,8047.00
2023-04-02T01:13:03.814Z,7989.00
2023-04-02T01:14:03.921Z,7937.00
2023-04-02T01:15:04.059Z,7821.00
2023-04-02T01:16:04.109Z,7678.00
2023-04-02T01:17:04.158Z,7583.00
2023-04-02T01:18:04.326Z,7530.00
2023-04-02T01:19:04.333Z,7490.00
2023-04-02T01:20:04.443Z,7509.00
2023-04-02T01:21:04.488Z,7578.00
2023-04-02T01:22:04.577Z,7621.00
2023-04-02T01:23:04.659Z,7556.00
2023-04-02T01:24:04.726Z,7509.00
2023-04-02T01:25:04.762Z,7544.00
2023-04-02T01:26:04.803Z,7592.00
2023-04-02T01:27:04.873Z,7605.00
2023-04-02T01:28:04.965Z,7636.00
2023-04-02T01:29:05.070Z,7655.00
2023-04-02T01:30:05.147Z,7638.00
2023-04-02T01:31:05.277Z,7600.00
2023-04-02T01:32:05.305Z,7610.00
2023-04-02T01:33:05.434Z,7689.00
2023-04-02T01:34:05.485Z,7706.00
2023-04-02T01:35:05.561Z,7746.00
2023-04-02T01:36:05.645Z,7825.00
2023-04-02T01:37:05.692Z,7770.00
2023-04-02T01:38:05.767Z,7656.00
2023-04-02T01:39:05.811Z,7672.00
2023-04-02T01:40:05.931Z,7714.00
2023-04-02T01:41:05.953Z,7689.00
2023-04-02T01:42:05.980Z,7747.00
2023-04-02T01:43:06.038Z,7797.00
2023-04-02T01:44:06.118Z,7867.00
2023-04-02T01:45:06.199Z,7915.00
2023-04-02T01:46:06.274Z,7957.00
2023-04-02T01:47:06.342Z,7959.00
2023-04-02T01:48:06.427Z,7946.00
2023-04-02T01:49:06.571Z,7867.00
2023-04-02T01:50:06.544Z,7877.00
2023-04-02T01:51:06.612Z,7915.00
2023-04-02T01:52:06.652Z,7928.00
2023-04-02T01:53:06.712Z,7934.00
2023-04-02T01:54:06.756Z,7966.00
2023-04-02T01:55:06.804Z,8012.00
2023-04-02T01:56:06.898Z,8023.00
2023-04-02T01:57:07.055Z,7938.00
2023-04-02T01:58:07.076Z,7919.00
2023-04-02T01:59:07.138Z,7924.00
2023-04-02T02:00:07.258Z,7920.00
2023-04-02T02:01:07.340Z,7940.00
2023-04-02T02:02:07.421Z,8012.00
2023-04-02T02:03:07.525Z,7929.00
2023-04-02T02:04:07.489Z,7921.00
2023-04-02T02:05:07.560Z,7922.00
2023-04-02T02:06:07.567Z,7925.00
2023-04-02T02:07:07.597Z,7937.00
2023-04-02T02:08:08.546Z,7901.00
2023-04-02T02:09:08.546Z,7921.00
2023-04-02T02:10:07.736Z,7990.00
2023-04-02T02:11:07.732Z,8024.00
2023-04-02T02:12:07.740Z,8006.00
2023-04-02T02:13:07.769Z,8015.00
2023-04-02T02:14:07.802Z,8095.00
2023-04-02T02:15:07.814Z,8203.00
2023-04-02T02:16:07.908Z,8286.00
2023-04-02T02:17:07.883Z,8297.00
2023-04-02T02:18:07.919Z,8260.00
2023-04-02T02:19:08.537Z,8203.00
2023-04-02T02:20:07.976Z,8193.00
2023-04-02T02:21:07.995Z,8219.00
2023-04-02T02:22:08.058Z,8248.00
2023-04-02T02:23:08.064Z,8263.00
2023-04-02T02:24:08.136Z,8227.00
2023-04-02T02:25:08.201Z,8194.00
2023-04-02T02:26:09.051Z,8109.00
2023-04-02T02:27:08.317Z,7936.00
2023-04-02T02:28:08.313Z,7852.00
2023-04-02T02:29:08.390Z,7710.00
2023-04-02T02:30:08.492Z,7555.00
2023-04-02T02:31:09.047Z,7500.00
2023-04-02T02:32:08.654Z,7525.00
2023-04-02T02:33:08.628Z,7543.00
2023-04-02T02:34:08.672Z,7557.00
2023-04-02T02:35:08.767Z,7576.00
2023-04-02T02:36:08.827Z,7630.00
2023-04-02T02:37:08.934Z,7676.00
2023-04-02T02:38:08.947Z,7897.00
2023-04-02T02:39:09.576Z,7910.00
2023-04-02T02:40:08.983Z,7971.00
2023-04-02T02:41:09.025Z,8075.00
2023-04-02T02:42:09.564Z,8220.00
2023-04-02T02:43:09.061Z,8365.00
2023-04-02T02:44:10.265Z,8148.00
2023-04-02T02:45:09.086Z,8079.00
2023-04-02T02:46:09.115Z,8062.00
2023-04-02T02:47:09.203Z,8028.00
2023-04-02T02:48:09.161Z,8040.00
2023-04-02T02:49:09.180Z,8092.00
2023-04-02T02:50:09.337Z,8196.00
2023-04-02T02:51:09.244Z,8155.00
2023-04-02T02:52:10.049Z,8112.00
2023-04-02T02:53:09.309Z,8091.00
2023-04-02T02:54:09.583Z,8091.00
2023-04-02T02:55:09.438Z,8133.00
2023-04-02T02:56:09.484Z,8153.00
2023-04-02T02:57:10.564Z,8208.00
2023-04-02T02:58:10.548Z,8265.00
2023-04-02T02:59:09.757Z,8333.00
2023-04-02T03:00:09.868Z,8332.00
2023-04-02T03:01:09.987Z,8369.00
2023-04-02T03:02:10.009Z,8419.00
2023-04-02T03:03:10.169Z,8414.00
2023-04-02T03:04:10.266Z,8445.00
2023-04-02T03:05:10.294Z,8281.00
2023-04-02T03:06:10.351Z,8265.00
2023-04-02T03:07:10.424Z,8339.00
2023-04-02T03:08:10.549Z,8358.00
2023-04-02T03:09:10.679Z,8355.00
2023-04-02T03:10:10.742Z,8376.00
2023-04-02T03:11:10.758Z,8366.00
2023-04-02T03:12:11.554Z,8372.00
2023-04-02T03:13:10.781Z,8360.00
2023-04-02T03:14:10.854Z,8309.00
2023-04-02T03:15:10.877Z,8326.00
2023-04-02T03:16:10.906Z,8337.00
2023-04-02T03:17:10.876Z,8357.00
2023-04-02T03:18:10.910Z,8389.00
2023-04-02T03:19:10.925Z,8391.00
2023-04-02T03:20:10.955Z,8364.00
2023-04-02T03:21:11.006Z,8349.00
2023-04-02T03:22:11.030Z,8260.00
2023-04-02T03:23:11.044Z,8161.00
2023-04-02T03:24:11.065Z,8164.00
2023-04-02T03:25:11.114Z,8170.00
2023-04-02T03:26:11.152Z,8170.00
2023-04-02T03:27:11.136Z,8127.00
2023-04-02T03:28:11.170Z,8061.00
2023-04-02T03:29:11.192Z,7982.00
2023-04-02T03:30:12.102Z,7986.00
2023-04-02T03:31:11.343Z,7925.00
2023-04-02T03:32:11.260Z,7836.00
2023-04-02T03:33:11.290Z,7808.00
2023-04-02T03:34:11.343Z,7682.00
2023-04-02T03:35:11.354Z,7599.00
2023-04-02T03:36:11.416Z,7457.00
2023-04-02T03:37:11.481Z,7513.00
2023-04-02T03:38:11.537Z,7541.00
2023-04-02T03:39:11.563Z,7569.00
2023-04-02T03:40:12.048Z,7566.00
2023-04-02T03:41:11.578Z,7606.00
2023-04-02T03:42:11.606Z,7596.00
2023-04-02T03:43:12.548Z,7575.00
2023-04-02T03:44:11.681Z,7638.00
2023-04-02T03:45:11.715Z,7680.00
2023-04-02T03:46:12.145Z,7689.00
2023-04-02T03:47:11.750Z,7697.00
2023-04-02T03:48:11.858Z,7667.00
2023-04-02T03:49:13.570Z,7655.00
2023-04-02T03:50:11.857Z,7640.00
2023-04-02T03:51:11.893Z,7629.00
2023-04-02T03:52:12.050Z,7678.00
2023-04-02T03:53:12.030Z,7710.00
2023-04-02T03:54:12.037Z,7755.00
2023-04-02T03:55:12.104Z,7774.00
2023-04-02T03:56:12.145Z,7827.00
2023-04-02T03:57:12.239Z,7871.00
2023-04-02T03:58:13.357Z,7935.00
2023-04-02T03:59:12.392Z,7965.00
2023-04-02T04:00:12.560Z,7965.00
2023-04-02T04:01:12.581Z,7931.00
2023-04-02T04:02:12.691Z,7914.00
2023-04-02T04:03:12.782Z,7817.00
2023-04-02T04:04:12.824Z,7615.00
2023-04-02T04:05:12.841Z,7319.00
2023-04-02T04:06:12.907Z,7085.00
2023-04-02T04:07:12.939Z,6836.00
2023-04-02T04:08:13.023Z,6801.00
2023-04-02T04:09:13.121Z,7059.00
2023-04-02T04:10:13.204Z,7144.00
2023-04-02T04:11:13.334Z,7142.00
2023-04-02T04:12:13.358Z,7173.00
2023-04-02T04:13:13.433Z,7223.00
2023-04-02T04:14:13.581Z,7331.00
2023-04-02T04:15:13.625Z,7428.00
2023-04-02T04:16:13.803Z,7393.00
2023-04-02T04:17:13.903Z,7524.00
2023-04-02T04:18:13.919Z,7621.00
2023-04-02T04:19:13.991Z,7633.00
2023-04-02T04:20:14.080Z,7639.00
2023-04-02T04:21:14.127Z,7640.00
2023-04-02T04:22:14.137Z,7657.00
2023-04-02T04:23:14.201Z,7616.00
2023-04-02T04:24:14.240Z,7614.00
2023-04-02T04:25:14.303Z,7583.00
2023-04-02T04:26:14.374Z,7550.00
2023-04-02T04:27:15.063Z,7542.00
2023-04-02T04:28:14.472Z,7503.00
2023-04-02T04:29:14.535Z,7401.00
2023-04-02T04:30:14.626Z,7154.00
2023-04-02T04:31:14.735Z,7040.00
2023-04-02T04:32:14.725Z,7109.00
2023-04-02T04:33:15.738Z,7130.00
2023-04-02T04:34:14.821Z,7101.00
2023-04-02T04:35:14.888Z,7090.00
2023-04-02T04:36:14.970Z,7166.00
2023-04-02T04:37:14.973Z,7217.00
2023-04-02T04:38:15.019Z,7269.00
2023-04-02T04:39:15.073Z,7347.00
2023-04-02T04:40:16.076Z,7414.00
2023-04-02T04:41:15.163Z,7315.00
2023-04-02T04:42:15.236Z,7397.00
2023-04-02T04:43:15.327Z,7436.00
2023-04-02T04:44:16.095Z,7344.00
2023-04-02T04:45:15.382Z,7291.00
2023-04-02T04:46:15.553Z,7203.00
2023-04-02T04:47:15.591Z,7119.00
2023-04-02T04:48:15.556Z,7152.00
2023-04-02T04:49:15.638Z,7155.00
2023-04-02T04:50:15.697Z,7185.00
2023-04-02T04:51:15.697Z,7185.00
2023-04-02T04:52:15.776Z,7179.00
2023-04-02T04:53:15.807Z,7178.00
2023-04-02T04:54:15.833Z,7214.00
2023-04-02T04:55:15.983Z,7245.00
2023-04-02T04:56:19.257Z,7278.00
2023-04-02T04:57:16.021Z,7292.00
2023-04-02T04:58:16.022Z,7273.00
2023-04-02T04:59:16.078Z,7294.00
2023-04-02T05:00:16.081Z,7319.00
2023-04-02T05:01:16.199Z,7310.00
2023-04-02T05:02:16.174Z,7299.00
2023-04-02T05:03:16.198Z,7330.00
2023-04-02T05:04:16.287Z,7385.00
2023-04-02T05:05:16.274Z,7391.00
2023-04-02T05:06:16.304Z,7428.00
2023-04-02T05:07:16.341Z,7466.00
2023-04-02T05:08:16.378Z,7501.00
2023-04-02T05:09:16.428Z,7509.00
2023-04-02T05:10:16.480Z,7563.00
2023-04-02T05:11:16.481Z,7528.00
2023-04-02T05:12:16.519Z,7518.00
2023-04-02T05:13:16.555Z,7499.00
2023-04-02T05:14:16.579Z,7504.00
2023-04-02T05:15:16.613Z,7507.00
2023-04-02T05:16:16.683Z,7526.00
2023-04-02T05:17:16.666Z,7566.00
2023-04-02T05:18:16.705Z,7605.00
2023-04-02T05:19:16.736Z,7672.00
2023-04-02T05:20:16.755Z,7679.00
2023-04-02T05:21:16.796Z,7625.00
2023-04-02T05:22:17.083Z,7620.00
2023-04-02T05:23:16.978Z,7644.00
2023-04-02T05:24:16.915Z,7691.00
2023-04-02T05:25:16.975Z,7717.00
2023-04-02T05:26:17.568Z,7747.00
2023-04-02T05:27:17.092Z,7665.00
2023-04-02T05:28:17.122Z,7672.00
2023-04-02T05:29:18.079Z,7646.00
2023-04-02T05:30:18.166Z,7567.00
2023-04-02T05:31:17.487Z,7557.00
2023-04-02T05:32:17.472Z,7577.00
2023-04-02T05:33:17.566Z,7599.00
2023-04-02T05:34:17.630Z,7697.00
2023-04-02T05:35:17.713Z,7765.00
2023-04-02T05:36:17.803Z,7902.00
2023-04-02T05:37:17.908Z,7924.00
2023-04-02T05:38:17.929Z,7943.00
2023-04-02T05:39:18.034Z,7904.00
2023-04-02T05:40:18.129Z,7841.00
2023-04-02T05:41:18.205Z,7801.00
2023-04-02T05:42:18.265Z,7806.00
2023-04-02T05:43:18.311Z,7832.00
2023-04-02T05:44:18.385Z,7843.00
2023-04-02T05:45:18.424Z,7845.00
2023-04-02T05:46:18.469Z,7851.00
2023-04-02T05:47:18.443Z,7864.00
2023-04-02T05:48:18.457Z,7892.00
2023-04-02T05:49:18.485Z,7981.00
2023-04-02T05:50:18.523Z,8007.00
2023-04-02T05:51:18.525Z,8008.00
2023-04-02T05:52:18.571Z,8008.00
2023-04-02T05:53:18.575Z,8008.00
2023-04-02T05:54:18.574Z,8040.00
2023-04-02T05:55:18.600Z,8170.00
2023-04-02T05:56:18.594Z,8351.00
2023-04-02T05:57:19.358Z,8458.00
2023-04-02T05:59:18.645Z,8822.00
2023-04-02T06:00:19.565Z,8726.00
2023-04-02T06:01:18.669Z,8580.00
2023-04-02T06:02:18.761Z,8426.00
2023-04-02T06:03:18.767Z,8367.00
2023-04-02T06:04:18.744Z,8353.00
2023-04-02T06:05:18.753Z,8284.00
2023-04-02T06:06:18.798Z,8249.00
2023-04-02T06:07:18.799Z,8103.00
2023-04-02T06:08:18.817Z,7841.00
2023-04-02T06:09:18.823Z,7722.00
2023-04-02T06:10:18.826Z,7651.00
2023-04-02T06:11:18.840Z,7606.00
2023-04-02T06:12:18.859Z,7591.00
2023-04-02T06:13:18.834Z,7479.00
2023-04-02T06:14:18.842Z,7346.00
2023-04-02T06:15:18.880Z,7221.00
2023-04-02T06:16:18.876Z,7177.00
2023-04-02T06:17:18.886Z,7228.00
2023-04-02T06:18:18.902Z,7355.00
2023-04-02T06:19:18.906Z,7444.00
2023-04-02T06:20:18.912Z,7675.00
2023-04-02T06:21:18.910Z,7956.00
2023-04-02T06:22:18.919Z,8046.00
2023-04-02T06:23:18.981Z,7883.00
2023-04-02T06:24:18.916Z,7692.00
2023-04-02T06:25:18.924Z,7628.00
2023-04-02T06:26:18.948Z,7540.00
2023-04-02T06:27:18.954Z,7525.00
2023-04-02T06:28:19.032Z,7561.00
2023-04-02T06:29:18.993Z,7543.00
2023-04-02T06:30:19.006Z,7491.00
2023-04-02T06:31:19.043Z,7338.00
2023-04-02T06:32:19.068Z,7276.00
2023-04-02T06:33:19.097Z,7424.00
2023-04-02T06:34:19.102Z,7495.00
2023-04-02T06:35:19.306Z,7405.00
2023-04-02T06:36:19.154Z,7340.00
2023-04-02T06:37:19.142Z,7382.00
2023-04-02T06:38:19.184Z,7574.00
2023-04-02T06:39:19.261Z,7776.00
2023-04-02T06:40:19.333Z,7837.00
2023-04-02T06:41:19.399Z,7930.00
2023-04-02T06:42:19.479Z,7897.00
2023-04-02T06:43:19.514Z,7405.00
2023-04-02T06:44:19.587Z,7156.00
2023-04-02T06:45:19.610Z,7029.00
2023-04-02T06:46:19.650Z,6915.00
2023-04-02T06:47:19.679Z,7125.00
2023-04-02T06:48:19.695Z,7354.00
2023-04-02T06:49:19.712Z,7249.00
2023-04-02T06:50:19.717Z,7100.00
2023-04-02T06:51:19.716Z,7111.00
2023-04-02T06:52:19.747Z,7248.00
2023-04-02T06:53:19.759Z,7331.00
2023-04-02T06:54:19.753Z,7186.00
2023-04-02T06:55:19.845Z,7072.00
2023-04-02T06:56:19.807Z,7009.00
2023-04-02T06:57:19.829Z,6997.00
2023-04-02T06:58:19.832Z,6946.00
2023-04-02T06:59:19.844Z,6738.00
2023-04-02T07:00:19.839Z,6585.00
2023-04-02T07:01:19.868Z,6677.00
2023-04-02T07:02:19.845Z,6745.00
2023-04-02T07:03:19.849Z,6753.00
2023-04-02T07:04:20.634Z,6743.00
2023-04-02T07:05:19.925Z,6848.00
2023-04-02T07:06:20.591Z,6746.00
2023-04-02T07:07:20.032Z,6463.00
2023-04-02T07:08:20.106Z,5827.00
2023-04-02T07:09:20.171Z,5356.00
2023-04-02T07:10:20.212Z,4987.00
2023-04-02T07:11:21.049Z,4789.00
2023-04-02T07:12:20.305Z,4689.00
2023-04-02T07:13:20.315Z,4673.00
2023-04-02T07:14:20.295Z,4690.00
2023-04-02T07:15:20.303Z,4689.00
2023-04-02T07:16:20.364Z,4711.00
2023-04-02T07:17:20.327Z,4757.00
2023-04-02T07:18:20.303Z,4713.00
2023-04-02T07:19:20.335Z,4735.00
2023-04-02T07:20:21.099Z,4742.00
2023-04-02T07:21:20.315Z,4625.00
2023-04-02T07:22:20.303Z,4613.00
2023-04-02T07:23:20.307Z,4711.00
2023-04-02T07:24:20.297Z,4757.00
2023-04-02T07:25:20.310Z,4709.00
2023-04-02T07:26:20.308Z,4715.00
2023-04-02T07:27:20.318Z,4695.00
2023-04-02T07:28:22.006Z,4314.00
2023-04-02T07:29:20.345Z,4063.00
2023-04-02T07:30:20.352Z,4077.00
2023-04-02T07:31:20.420Z,4125.00
2023-04-02T07:32:20.367Z,4011.00
2023-04-02T07:33:20.411Z,4020.00
2023-04-02T07:34:20.465Z,4018.00
2023-04-02T07:35:20.505Z,3843.00
2023-04-02T07:36:20.601Z,3719.00
2023-04-02T07:37:20.644Z,3664.00
2023-04-02T07:38:20.705Z,3624.00
2023-04-02T07:39:20.729Z,3553.00
2023-04-02T07:40:20.780Z,3200.00
2023-04-02T07:42:04.198Z,500.00
2023-04-02T07:43:04.169Z,500.00
2023-04-02T07:44:04.174Z,500.00
2023-04-02T07:45:06.091Z,500.00
2023-04-02T07:46:04.136Z,500.00
2023-04-02T07:47:04.240Z,422.00
2023-04-02T07:48:04.120Z,400.00
2023-04-02T07:49:04.068Z,400.00
2023-04-02T07:50:04.041Z,400.00
2023-04-02T07:51:04.012Z,400.00
2023-04-02T07:52:03.987Z,400.00
2023-04-02T07:53:03.971Z,400.00
2023-04-02T07:54:03.948Z,400.00
2023-04-02T07:55:03.892Z,400.00
2023-04-02T07:56:03.872Z,400.00
2023-04-02T07:57:03.913Z,400.00
2023-04-02T07:58:03.828Z,400.00
2023-04-02T07:59:03.813Z,400.00
2023-04-02T08:00:03.832Z,400.00
2023-04-02T08:01:03.885Z,404.00
2023-04-02T08:02:03.752Z,400.00
2023-04-02T08:03:03.851Z,426.00
2023-04-02T08:04:03.739Z,471.00
2023-04-02T08:05:03.699Z,542.00
2023-04-02T08:06:03.691Z,507.00
2023-04-02T08:07:04.376Z,500.00
2023-04-02T08:08:03.743Z,543.00
2023-04-02T08:09:03.703Z,558.00
2023-04-02T08:10:03.754Z,429.00
2023-04-02T08:11:03.737Z,400.00
2023-04-02T08:12:03.698Z,400.00
2023-04-02T08:13:03.681Z,400.00
2023-04-02T08:14:03.670Z,400.00
2023-04-02T08:15:03.652Z,400.00
2023-04-02T08:16:03.697Z,400.00
2023-04-02T08:17:03.660Z,420.00
2023-04-02T08:18:03.701Z,462.00
2023-04-02T08:19:03.658Z,472.00
2023-04-02T08:20:03.681Z,500.00
2023-04-02T08:21:03.686Z,473.00
2023-04-02T08:22:03.756Z,440.00
2023-04-02T08:23:03.771Z,493.00
2023-04-02T08:24:03.841Z,532.00
2023-04-02T08:25:03.813Z,498.00
2023-04-02T08:26:03.844Z,502.00
2023-04-02T08:27:03.864Z,529.00
2023-04-02T08:28:03.898Z,467.00
2023-04-02T08:29:03.984Z,452.00
2023-04-02T08:30:03.944Z,451.00
2023-04-02T08:31:04.041Z,530.00
2023-04-02T08:32:04.935Z,612.00
2023-04-02T08:33:04.033Z,623.00
2023-04-02T08:34:04.018Z,631.00
2023-04-02T08:35:04.049Z,522.00
2023-04-02T08:36:04.125Z,497.00
2023-04-02T08:37:04.045Z,500.00
2023-04-02T08:38:04.061Z,500.00
2023-04-02T08:39:04.087Z,501.00
2023-04-02T08:40:04.084Z,493.00
2023-04-02T08:41:04.117Z,541.00
2023-04-02T08:42:04.139Z,525.00
2023-04-02T08:43:04.168Z,514.00
2023-04-02T08:44:04.246Z,508.00
2023-04-02T08:45:13.713Z,524.00
2023-04-02T08:46:05.243Z,510.00
2023-04-02T08:47:04.204Z,530.00
2023-04-02T08:48:04.264Z,547.00
2023-04-02T08:49:04.257Z,579.00
2023-04-02T08:50:04.105Z,646.00
2023-04-02T08:51:04.903Z,596.00
2023-04-02T08:52:04.047Z,565.00
2023-04-02T08:53:04.019Z,565.00
2023-04-02T08:54:03.998Z,568.00
2023-04-02T08:55:03.952Z,579.00
2023-04-02T08:56:03.901Z,611.00
2023-04-02T08:57:03.909Z,614.00
2023-04-02T08:58:03.926Z,602.00
2023-04-02T08:59:03.875Z,587.00
2023-04-02T09:00:04.414Z,513.00
2023-04-02T09:01:03.749Z,490.00
2023-04-02T09:02:03.797Z,514.00
2023-04-02T09:03:03.731Z,567.00
2023-04-02T09:04:06.396Z,617.00
2023-04-02T09:05:05.416Z,580.00
2023-04-02T09:06:03.606Z,564.00
2023-04-02T09:07:03.547Z,564.00
2023-04-02T09:08:03.520Z,583.00
2023-04-02T09:09:03.528Z,556.00
2023-04-02T09:10:04.382Z,554.00
2023-04-02T09:11:03.425Z,542.00
2023-04-02T09:12:03.360Z,494.00
2023-04-02T09:13:03.319Z,494.00
2023-04-02T09:14:03.895Z,500.00
2023-04-02T09:15:03.886Z,510.00
2023-04-02T09:16:03.220Z,535.00
2023-04-02T09:17:03.150Z,556.00
2023-04-02T09:18:03.249Z,532.00
2023-04-02T09:19:03.099Z,412.00
2023-04-02T09:20:03.899Z,400.00
2023-04-02T09:21:02.996Z,400.00
2023-04-02T09:22:02.967Z,400.00
2023-04-02T09:23:02.929Z,400.00
2023-04-02T09:24:04.040Z,400.00
2023-04-02T09:25:02.882Z,400.00
2023-04-02T09:26:04.827Z,400.00
2023-04-02T09:27:02.856Z,400.00
2023-04-02T09:28:02.883Z,400.00
2023-04-02T09:29:02.816Z,400.00
2023-04-02T09:30:02.750Z,400.00
2023-04-02T09:31:03.328Z,400.00
2023-04-02T09:32:02.725Z,400.00
2023-04-02T09:33:03.505Z,400.00
2023-04-02T09:34:02.648Z,400.00
2023-04-02T09:35:05.639Z,400.00
2023-04-02T09:36:03.659Z,400.00
2023-04-02T09:37:02.581Z,400.00
2023-04-02T09:38:04.418Z,400.00
2023-04-02T09:39:02.530Z,400.00
2023-04-02T09:40:02.527Z,400.00
2023-04-02T09:41:02.495Z,400.00
2023-04-02T09:42:05.757Z,400.00
2023-04-02T09:43:02.465Z,400.00
2023-04-02T09:44:03.385Z,400.00
2023-04-02T09:45:02.438Z,400.00
2023-04-02T09:46:02.416Z,400.00
2023-04-02T09:47:02.400Z,400.00
2023-04-02T09:48:02.383Z,400.00
2023-04-02T09:49:02.363Z,400.00
2023-04-02T09:50:02.362Z,400.00
2023-04-02T09:51:02.338Z,412.00
2023-04-02T09:52:02.336Z,400.00
2023-04-02T09:53:02.261Z,400.00
2023-04-02T09:54:02.208Z,400.00
2023-04-02T09:55:02.206Z,409.00
2023-04-02T09:56:02.172Z,500.00
2023-04-02T09:57:02.203Z,493.00
2023-04-02T09:58:03.102Z,505.00
2023-04-02T09:59:02.077Z,544.00
2023-04-02T10:00:02.078Z,914.00
2023-04-02T10:01:03.975Z,1145.00
2023-04-02T10:02:01.972Z,1024.00
2023-04-02T10:03:02.033Z,971.00
2023-04-02T10:04:02.933Z,1120.00
2023-04-02T10:05:01.964Z,1334.00
2023-04-02T10:06:01.902Z,1196.00
2023-04-02T10:07:01.849Z,1045.00
2023-04-02T10:08:01.820Z,945.00
2023-04-02T10:09:01.782Z,868.00
2023-04-02T10:10:01.792Z,827.00
2023-04-02T10:11:01.718Z,1112.00
2023-04-02T10:12:01.711Z,1195.00
2023-04-02T10:13:03.429Z,826.00
2023-04-02T10:14:01.623Z,689.00
2023-04-02T10:15:01.655Z,685.00
2023-04-02T10:16:01.587Z,787.00
2023-04-02T10:17:01.623Z,750.00
2023-04-02T10:18:01.633Z,666.00
2023-04-02T10:19:01.602Z,602.00
2023-04-02T10:20:01.651Z,546.00
2023-04-02T10:21:01.600Z,578.00
2023-04-02T10:22:01.598Z,630.00
2023-04-02T10:23:01.588Z,1343.00
2023-04-02T10:24:01.611Z,1336.00
2023-04-02T10:25:01.680Z,911.00
2023-04-02T10:26:01.593Z,851.00
2023-04-02T10:27:02.538Z,639.00
2023-04-02T10:28:01.539Z,622.00
2023-04-02T10:29:01.446Z,614.00
2023-04-02T10:30:01.415Z,588.00
2023-04-02T10:31:01.413Z,574.00
2023-04-02T10:32:01.911Z,572.00
2023-04-02T10:33:01.332Z,615.00
2023-04-02T10:34:01.213Z,690.00
2023-04-02T10:35:01.184Z,734.00
2023-04-02T10:36:01.125Z,734.00
2023-04-02T10:37:01.067Z,753.00
2023-04-02T10:38:01.016Z,755.00
2023-04-02T10:39:00.957Z,592.00
2023-04-02T10:40:00.967Z,643.00
2023-04-02T10:41:00.878Z,604.00
2023-04-02T10:42:00.799Z,577.00
2023-04-02T10:43:00.744Z,493.00
2023-04-02T10:44:12.611Z,524.00
2023-04-02T10:45:01.849Z,477.00
2023-04-02T10:46:00.873Z,455.00
2023-04-02T10:47:00.832Z,400.00
2023-04-02T10:48:00.870Z,400.00
2023-04-02T10:49:00.828Z,400.00
2023-04-02T10:50:00.816Z,400.00
2023-04-02T10:51:01.491Z,400.00
2023-04-02T10:52:00.769Z,400.00
2023-04-02T10:53:00.744Z,476.00
2023-04-02T10:54:00.743Z,523.00
2023-04-02T10:55:00.734Z,573.00
2023-04-02T10:56:00.722Z,552.00
2023-04-02T10:57:00.673Z,503.00
2023-04-02T10:58:01.407Z,434.00
2023-04-02T10:59:00.653Z,487.00
2023-04-02T11:00:00.644Z,504.00
2023-04-02T11:01:00.702Z,590.00
2023-04-02T11:02:00.652Z,670.00
2023-04-02T11:03:01.621Z,624.00
2023-04-02T11:04:00.668Z,587.00
2023-04-02T11:05:01.997Z,532.00
2023-04-02T11:06:00.660Z,586.00
2023-04-02T11:07:13.196Z,533.00
2023-04-02T11:08:01.631Z,538.00
2023-04-02T11:09:00.743Z,557.00
2023-04-02T11:10:01.434Z,589.00
2023-04-02T11:11:01.402Z,618.00
2023-04-02T11:12:00.499Z,821.00
2023-04-02T11:13:01.425Z,916.00
2023-04-02T11:14:00.400Z,1028.00
2023-04-02T11:15:00.401Z,1268.00
2023-04-02T11:16:00.370Z,1531.00
2023-04-02T11:17:01.036Z,1863.00
2023-04-02T11:18:00.260Z,2023.00
2023-04-02T11:19:00.128Z,2105.00
2023-04-02T11:20:00.050Z,2131.00
2023-04-02T11:21:00.009Z,2242.00
2023-04-02T11:22:01.486Z,2441.00
2023-04-02T11:23:02.433Z,2759.00
2023-04-02T11:24:00.056Z,2767.00
2023-04-02T11:25:00.052Z,2803.00
2023-04-02T11:26:00.069Z,2829.00
2023-04-02T11:27:00.073Z,2958.00
2023-04-02T11:28:00.127Z,3111.00
2023-04-02T11:29:00.142Z,3284.00
2023-04-02T11:30:00.173Z,3215.00
2023-04-02T11:31:00.150Z,3294.00
2023-04-02T11:32:00.135Z,3296.00
2023-04-02T11:33:00.163Z,3260.00
2023-04-02T11:34:00.090Z,3218.00
2023-04-02T11:35:06.526Z,3187.00
2023-04-02T11:36:01.075Z,3100.00
2023-04-02T11:36:59.974Z,3156.00
2023-04-02T11:37:59.935Z,3112.00
2023-04-02T11:39:14.752Z,3204.00
2023-04-02T11:40:01.412Z,3108.00
2023-04-02T11:40:59.879Z,2963.00
2023-04-02T11:41:59.830Z,3114.00
2023-04-02T11:42:59.915Z,3357.00
2023-04-02T11:43:59.837Z,3624.00
2023-04-02T11:44:59.756Z,3644.00
2023-04-02T11:45:59.742Z,3788.00
2023-04-02T11:46:59.769Z,3790.00
2023-04-02T11:48:00.562Z,3795.00
2023-04-02T11:48:59.623Z,3816.00
2023-04-02T11:49:59.602Z,3802.00
2023-04-02T11:50:59.651Z,3722.00
2023-04-02T11:52:11.550Z,3745.00
2023-04-02T11:53:00.556Z,3764.00
2023-04-02T11:54:00.609Z,3711.00
2023-04-02T11:54:59.509Z,3720.00
2023-04-02T11:55:59.941Z,3674.00
2023-04-02T11:56:59.501Z,3727.00
2023-04-02T11:57:59.452Z,3748.00
2023-04-02T11:58:59.430Z,3807.00
2023-04-02T11:59:59.410Z,3863.00
2023-04-02T12:00:59.377Z,3562.00
2023-04-02T12:01:59.370Z,3569.00
2023-04-02T12:03:00.973Z,3553.00
2023-04-02T12:03:59.305Z,3651.00
2023-04-02T12:04:59.322Z,3581.00
2023-04-02T12:05:59.286Z,3401.00
2023-04-02T12:06:59.266Z,3335.00
2023-04-02T12:07:59.945Z,3474.00
2023-04-02T12:08:59.324Z,3572.00
2023-04-02T12:09:59.271Z,3527.00
2023-04-02T12:10:59.338Z,3670.00
2023-04-02T12:11:59.297Z,3576.00
2023-04-02T12:12:59.280Z,3587.00